createdAt,value
2017-08-18T00:00:20.015Z,82.37
2017-08-18T00:02:44.368Z,83.69
2017-08-18T00:05:08.874Z,84.08
2017-08-18T00:07:33.365Z,83.78
2017-08-18T00:09:57.839Z,82.91
2017-08-18T00:12:22.356Z,82.62
2017-08-18T00:14:46.825Z,82.43
2017-08-18T00:16:57.373Z,82.62
2017-08-18T00:19:21.881Z,83.4
2017-08-18T00:21:46.247Z,82.23
2017-08-18T00:24:10.649Z,82.18
2017-08-18T00:26:35.102Z,81.65
2017-08-18T00:28:59.553Z,81.56
2017-08-18T00:31:23.942Z,82.23
2017-08-18T00:33:39.811Z,82.33
2017-08-18T00:36:04.215Z,82.29
2017-08-18T00:38:28.565Z,82.58
2017-08-18T00:40:52.976Z,83.36
2017-08-18T00:43:17.364Z,83.41
2017-08-18T00:45:41.756Z,83.89
2017-08-18T00:48:06.167Z,83.41
2017-08-18T00:50:30.507Z,83.41
2017-08-18T00:52:54.928Z,83.06
2017-08-18T00:55:19.291Z,82.48
2017-08-18T00:57:43.626Z,82.58
2017-08-18T01:00:08.003Z,82.39
2017-08-18T01:02:32.420Z,83.45
2017-08-18T01:04:56.645Z,83.89
2017-08-18T01:07:21.029Z,83.84
2017-08-18T01:09:45.682Z,82.97
2017-08-18T01:12:09.973Z,83.89
2017-08-18T01:14:34.366Z,84.38
2017-08-18T01:16:58.717Z,84.47
2017-08-18T01:19:23.098Z,83.94
2017-08-18T01:21:39.106Z,84.19
2017-08-18T01:24:03.467Z,85.59
2017-08-18T01:26:27.868Z,85.53
2017-08-18T01:28:52.264Z,85.69
2017-08-18T01:31:08.174Z,84.95
2017-08-18T01:33:32.429Z,84.67
2017-08-18T01:35:56.630Z,85.88
2017-08-18T01:38:21.020Z,85.88
2017-08-18T01:40:45.404Z,86.56
2017-08-18T01:43:09.778Z,86.75
2017-08-18T01:45:34.060Z,86.56
2017-08-18T01:47:58.343Z,86.65
2017-08-18T01:50:22.784Z,86.85
2017-08-18T01:52:47.126Z,85.98
2017-08-18T01:55:11.418Z,86.65
2017-08-18T01:57:35.717Z,86.56
2017-08-18T01:59:37.168Z,87.33
2017-08-18T02:02:01.609Z,86.85
2017-08-18T02:04:25.952Z,87.29
2017-08-18T02:06:50.197Z,87.77
2017-08-18T02:09:14.503Z,87.87
2017-08-18T02:11:38.808Z,87.77
2017-08-18T02:14:03.120Z,87.77
2017-08-18T02:16:27.362Z,87.48
2017-08-18T02:18:43.285Z,87.67
2017-08-18T02:21:07.561Z,87
2017-08-18T02:23:31.855Z,86.71
2017-08-18T02:25:56.117Z,86.71
2017-08-18T02:28:20.418Z,86.46
2017-08-18T02:30:44.701Z,86.56
2017-08-18T02:33:08.992Z,88.31
2017-08-18T02:35:33.471Z,88.15
2017-08-18T02:37:57.852Z,87.48
2017-08-18T02:40:22.479Z,86.9
2017-08-18T02:42:46.638Z,87
2017-08-18T02:45:10.938Z,87.09
2017-08-18T02:47:35.486Z,87.67
2017-08-18T02:50:00.641Z,87.19
2017-08-18T02:52:25.022Z,87.48
2017-08-18T02:54:49.569Z,87.38
2017-08-18T02:57:14.240Z,87.09
2017-08-18T02:59:38.508Z,86.42
2017-08-18T03:02:02.661Z,86.42
2017-08-18T03:04:26.651Z,86.71
2017-08-18T03:06:50.946Z,87.48
2017-08-18T03:09:15.188Z,87.29
2017-08-18T03:11:39.636Z,87.09
2017-08-18T03:14:04.215Z,87
2017-08-18T03:16:28.520Z,86.32
2017-08-18T03:18:53.474Z,86.03
2017-08-18T03:21:18.838Z,86.8
2017-08-18T03:23:43.858Z,87.15
2017-08-18T03:26:07.895Z,86.32
2017-08-18T03:28:32.387Z,86.07
2017-08-18T03:30:57.080Z,86.22
2017-08-18T03:33:21.570Z,87.09
2017-08-18T03:35:46.022Z,86.8
2017-08-18T03:38:10.396Z,87.09
2017-08-18T03:40:26.397Z,86.42
2017-08-18T03:42:50.630Z,87.48
2017-08-18T03:45:14.917Z,86.42
2017-08-18T03:47:31.007Z,87.63
2017-08-18T03:49:57.131Z,88.31
2017-08-18T03:52:21.574Z,88.4
2017-08-18T03:54:45.751Z,88.31
2017-08-18T03:57:10.341Z,89.07
2017-08-18T03:59:34.877Z,88.5
2017-08-18T04:01:59.568Z,89.07
2017-08-18T04:04:23.686Z,90.19
2017-08-18T04:06:47.972Z,89.75
2017-08-18T04:09:12.396Z,89.75
2017-08-18T04:11:36.882Z,88.89
2017-08-18T04:14:01.165Z,88.45
2017-08-18T04:16:25.541Z,88.02
2017-08-18T04:18:49.835Z,87.38
2017-08-18T04:21:14.233Z,87.67
2017-08-18T04:23:39.718Z,87.38
2017-08-18T04:26:03.774Z,87.38
2017-08-18T04:28:28.085Z,87
2017-08-18T04:30:52.404Z,87.48
2017-08-18T04:33:16.683Z,87.44
2017-08-18T04:35:40.991Z,86.61
2017-08-18T04:38:05.433Z,86.96
2017-08-18T04:40:29.804Z,86.52
2017-08-18T04:42:54.011Z,85.49
2017-08-18T04:45:18.220Z,85.4
2017-08-18T04:47:42.497Z,84.72
2017-08-18T04:50:06.792Z,83.75
2017-08-18T04:52:31.225Z,84.14
2017-08-18T04:54:57.023Z,83.41
2017-08-18T04:57:21.825Z,84.63
2017-08-18T04:59:46.535Z,83.41
2017-08-18T05:02:10.695Z,81.9
2017-08-18T05:04:35.077Z,78.11
2017-08-18T05:06:59.519Z,78.11
2017-08-18T05:09:24.873Z,81.23
2017-08-18T05:11:49.249Z,81.13
2017-08-18T05:14:13.870Z,82.15
2017-08-18T05:16:38.284Z,81.42
2017-08-18T05:19:02.795Z,81.23
2017-08-18T05:21:27.345Z,82.73
2017-08-18T05:23:51.736Z,83.37
2017-08-18T05:26:16.302Z,83.08
2017-08-18T05:28:40.529Z,83.99
2017-08-18T05:31:04.885Z,83.61
2017-08-18T05:33:29.268Z,83.75
2017-08-18T05:35:53.673Z,82.97
2017-08-18T05:38:18.152Z,82
2017-08-18T05:40:42.319Z,80.4
2017-08-18T05:43:06.747Z,81.07
2017-08-18T05:45:31.123Z,78.89
2017-08-18T05:51:08.075Z,80.2
2017-08-18T05:53:18.575Z,80.01
2017-08-18T05:55:43.703Z,80.11
2017-08-18T05:58:08.587Z,80.4
2017-08-18T06:00:24.487Z,80.11
2017-08-18T06:02:48.892Z,80.84
2017-08-18T06:05:13.258Z,78.99
2017-08-18T06:07:29.246Z,77.28
2017-08-18T06:09:53.635Z,77.57
2017-08-18T06:12:18.036Z,78.21
2017-08-18T06:14:42.529Z,79.43
2017-08-18T06:17:07.021Z,80.74
2017-08-18T06:19:31.452Z,80.11
2017-08-18T06:21:58.118Z,82.64
2017-08-18T06:24:22.557Z,80.2
2017-08-18T06:26:47.051Z,79.66
2017-08-18T06:29:11.428Z,81.71
2017-08-18T06:31:35.933Z,82.15
2017-08-18T06:34:00.331Z,81.13
2017-08-18T06:36:24.765Z,82.39
2017-08-18T06:38:49.267Z,82.45
2017-08-18T06:41:13.670Z,80.84
2017-08-18T06:45:36.886Z,81.71
2017-08-18T06:49:36.815Z,80.79
2017-08-18T06:51:52.717Z,81.62
2017-08-18T06:54:17.062Z,82.35
2017-08-18T06:56:41.450Z,82.69
2017-08-18T06:59:05.846Z,82.83
2017-08-18T07:01:30.239Z,82.54
2017-08-18T07:03:54.615Z,81.62
2017-08-18T07:06:19.003Z,81.9
2017-08-18T07:08:43.388Z,81.65
2017-08-18T07:11:07.680Z,81.21
2017-08-18T07:13:32.091Z,79.85
2017-08-18T07:15:57.575Z,78.15
2017-08-18T07:18:21.907Z,75.61
2017-08-18T07:20:46.395Z,74.19
2017-08-18T07:23:10.765Z,74.39
2017-08-18T07:28:13.884Z,69.32
2017-08-18T07:30:38.612Z,68.25
2017-08-18T07:33:04.214Z,67.8
2017-08-18T07:35:28.963Z,67.41
2017-08-18T07:37:54.464Z,66.83
2017-08-18T07:40:21.639Z,64.49
2017-08-18T07:42:51.007Z,62.24
2017-08-18T07:49:08.056Z,61.07
2017-08-18T07:51:40.006Z,64.13
2017-08-18T07:54:05.709Z,62.53
2017-08-18T07:56:22.264Z,61.66
2017-08-18T08:00:36.596Z,62.85
2017-08-18T08:03:01.815Z,63.61
2017-08-18T08:05:26.934Z,66.08
2017-08-18T08:07:51.969Z,65.01
2017-08-18T08:10:17.039Z,65.88
2017-08-18T08:12:42.135Z,61.66
2017-08-18T08:15:07.141Z,64.55
2017-08-18T08:17:18.397Z,62.99
2017-08-18T08:19:26.531Z,62.7
2017-08-18T08:21:46.534Z,62.38
2017-08-18T08:24:06.045Z,62.86
2017-08-18T08:26:30.691Z,64.78
2017-08-18T08:29:02.636Z,66.56
2017-08-18T08:31:27.585Z,64.87
2017-08-18T08:33:44.054Z,64.78
2017-08-18T08:36:09.053Z,63.61
2017-08-18T08:38:34.140Z,60.45
2017-08-18T08:40:59.086Z,59.59
2017-08-18T08:43:24.204Z,53.19
2017-08-18T08:45:49.392Z,49.9
2017-08-18T08:48:14.721Z,47.19
2017-08-18T08:50:40.164Z,43.84
2017-08-18T08:53:05.582Z,43.92
2017-08-18T08:55:31.070Z,42.97
2017-08-18T08:57:56.757Z,45.04
2017-08-18T09:00:22.525Z,44.45
2017-08-18T09:02:48.139Z,44.24
2017-08-18T09:05:13.876Z,42.58
2017-08-18T09:07:39.632Z,46.55
2017-08-18T09:10:05.507Z,46.37
2017-08-18T09:12:31.195Z,42.66
2017-08-18T09:14:56.876Z,45.12
2017-08-18T09:17:22.554Z,44.06
2017-08-18T09:19:48.285Z,42.83
2017-08-18T09:22:14.021Z,43.19
2017-08-18T09:24:31.235Z,46.92
2017-08-18T09:26:56.967Z,47.49
2017-08-18T09:29:22.698Z,47.49
2017-08-18T09:31:48.403Z,47.66
2017-08-18T09:34:14.119Z,46.57
2017-08-18T09:36:39.838Z,47.51
2017-08-18T09:38:43.117Z,45.61
2017-08-18T09:41:08.851Z,46.72
2017-08-18T09:43:34.569Z,50.51
2017-08-18T09:45:45.452Z,49.33
2017-08-18T09:48:11.167Z,47.78
2017-08-18T09:50:36.770Z,48.27
2017-08-18T09:53:02.393Z,48.47
2017-08-18T09:55:28.031Z,47.12
2017-08-18T09:57:53.622Z,47.58
2017-08-18T10:00:19.274Z,48.25
2017-08-18T10:02:44.981Z,45.88
2017-08-18T10:05:10.604Z,50.61
2017-08-18T10:07:36.265Z,49.46
2017-08-18T10:10:01.917Z,50.63
2017-08-18T10:12:27.517Z,47.36
2017-08-18T10:14:52.964Z,49.19
2017-08-18T10:18:55.014Z,49.55
2017-08-18T10:21:22.009Z,47.96
2017-08-18T10:23:15.950Z,47.58
2017-08-18T10:25:41.469Z,50.68
2017-08-18T10:28:05.640Z,51.27
2017-08-18T10:30:30.984Z,51.61
2017-08-18T10:32:56.590Z,53.42
2017-08-18T10:35:21.888Z,53.13
2017-08-18T10:37:38.949Z,51.34
2017-08-18T10:40:04.273Z,51.73
2017-08-18T10:42:29.665Z,51.93
2017-08-18T10:44:55.040Z,52.81
2017-08-18T10:47:11.917Z,51.93
2017-08-18T10:49:37.233Z,54.16
2017-08-18T10:52:02.789Z,54.13
2017-08-18T10:54:28.185Z,54.28
2017-08-18T10:56:53.533Z,54.52
2017-08-18T10:59:18.969Z,52.35
2017-08-18T11:01:44.264Z,51.98
2017-08-18T11:04:09.914Z,52.93
2017-08-18T11:06:35.412Z,52.76
2017-08-18T11:09:00.677Z,53.55
2017-08-18T11:11:25.969Z,52.98
2017-08-18T11:13:51.340Z,51.88
2017-08-18T11:16:02.163Z,51.17
2017-08-18T11:18:29.633Z,51.25
2017-08-18T11:20:56.083Z,51.81
2017-08-18T11:23:23.400Z,51.22
2017-08-18T11:25:50.855Z,50.51
2017-08-18T11:27:56.343Z,49.75
2017-08-18T11:30:22.719Z,50.56
2017-08-18T11:32:51.001Z,51.66
2017-08-18T11:35:16.576Z,52.96
2017-08-18T11:37:41.904Z,52.25
2017-08-18T11:40:07.348Z,52.93
2017-08-18T11:42:38.860Z,52.2
2017-08-18T11:45:05.180Z,53.16
2017-08-18T11:47:31.401Z,52.42
2017-08-18T11:49:57.616Z,52.27
2017-08-18T11:52:22.794Z,51.66
2017-08-18T11:54:50.094Z,53.76
2017-08-18T11:57:14.952Z,53.56
2017-08-18T11:59:40.364Z,53.13
2017-08-18T12:02:05.830Z,53.59
2017-08-18T12:04:07.842Z,54.57
2017-08-18T12:06:18.814Z,54.5
2017-08-18T12:08:44.938Z,55.22
2017-08-18T12:11:10.227Z,54.52
2017-08-18T12:13:35.463Z,54.35
2017-08-18T12:16:02.433Z,53.52
2017-08-18T12:18:27.816Z,53.62
2017-08-18T12:20:53.187Z,53.18
2017-08-18T12:23:19.296Z,51.93
2017-08-18T12:25:44.822Z,51.76
2017-08-18T12:28:09.934Z,51.83
2017-08-18T12:30:35.151Z,51.81
2017-08-18T12:33:00.897Z,53.06
2017-08-18T12:35:26.282Z,53.33
2017-08-18T12:37:52.943Z,53.06
2017-08-18T12:40:18.959Z,50.42
2017-08-18T12:42:45.446Z,50.83
2017-08-18T12:45:12.641Z,50.88
2017-08-18T12:47:38.755Z,49.68
2017-08-18T12:50:04.134Z,47.71
2017-08-18T12:52:30.591Z,49.51
2017-08-18T12:55:04.097Z,49.43
2017-08-18T12:57:31.618Z,50.73
2017-08-18T12:59:56.816Z,50.76
2017-08-18T13:02:22.725Z,50.14
2017-08-18T13:04:49.538Z,49.63
2017-08-18T13:07:20.831Z,50.85
2017-08-18T13:09:52.830Z,52.37
2017-08-18T13:12:18.227Z,52.67
2017-08-18T13:14:45.608Z,51.59
2017-08-18T13:17:11.071Z,53.42
2017-08-18T13:19:36.965Z,53.72
2017-08-18T13:22:02.277Z,54.11
2017-08-18T13:24:27.575Z,54.77
2017-08-18T13:26:53.153Z,54.86
2017-08-18T13:29:18.489Z,55.35
2017-08-18T13:31:44.847Z,56.93
2017-08-18T13:34:12.538Z,58.01
2017-08-18T13:36:37.783Z,58.4
2017-08-18T13:39:03.407Z,60.06
2017-08-18T13:41:28.501Z,61.79
2017-08-18T13:43:53.709Z,62.92
2017-08-18T13:46:18.837Z,66.83
2017-08-18T13:48:35.416Z,65.56
2017-08-18T13:51:00.429Z,66.79
2017-08-18T13:53:25.622Z,67.54
2017-08-18T13:55:42.109Z,67.99
2017-08-18T13:58:07.199Z,71.66
2017-08-18T14:00:32.113Z,73.11
2017-08-18T14:02:57.034Z,73.89
2017-08-18T14:05:22.983Z,75.58
2017-08-18T14:07:47.853Z,78.27
2017-08-18T14:10:19.580Z,78.11
2017-08-18T14:12:44.492Z,80.02
2017-08-18T14:15:09.256Z,75.98
2017-08-18T14:17:34.008Z,77.4
2017-08-18T14:19:58.891Z,76.02
2017-08-18T14:22:23.768Z,73.27
2017-08-18T14:24:48.641Z,72.29
2017-08-18T14:26:50.292Z,73.72
2017-08-18T14:29:15.310Z,75.04
2017-08-18T14:31:17.650Z,75.67
2017-08-18T14:33:19.835Z,77.39
2017-08-18T14:35:44.916Z,75.82
2017-08-18T14:38:09.860Z,77.09
2017-08-18T14:40:34.965Z,76.51
2017-08-18T14:42:56.075Z,76.28
2017-08-18T14:45:21.034Z,75.49
2017-08-18T14:47:46.050Z,76.02
2017-08-18T14:51:47.468Z,74.85
2017-08-18T14:54:03.940Z,76.88
2017-08-18T14:56:28.913Z,77.08
2017-08-18T14:58:53.948Z,77.62
2017-08-18T15:01:18.847Z,78.5
2017-08-18T15:03:43.926Z,77.22
2017-08-18T15:06:11.757Z,78.85
2017-08-18T15:08:48.104Z,81.43
2017-08-18T15:11:25.364Z,80.32
2017-08-18T15:13:50.192Z,81.48
2017-08-18T15:16:14.996Z,80.28
2017-08-18T15:18:39.669Z,80.22
2017-08-18T15:21:04.357Z,80.67
2017-08-18T15:23:28.986Z,78.34
2017-08-18T15:25:53.724Z,78.21
2017-08-18T15:28:20.219Z,73.9
2017-08-18T15:30:44.829Z,75.38
2017-08-18T15:33:09.802Z,74.58
2017-08-18T15:35:53.135Z,73.71
2017-08-18T15:37:57.120Z,74.19
2017-08-18T15:40:22.047Z,72.74
2017-08-18T15:42:48.940Z,73.03
2017-08-18T15:44:51.015Z,74.74
2017-08-18T15:47:01.181Z,74.16
2017-08-18T15:49:28.921Z,73.05
2017-08-18T15:51:53.737Z,74.22
2017-08-18T15:54:18.269Z,73.5
2017-08-18T15:57:08.125Z,73.5
2017-08-18T15:59:33.307Z,73.83
2017-08-18T16:01:59.539Z,75.6
2017-08-18T16:04:24.115Z,75.54
2017-08-18T16:06:51.322Z,75.73
2017-08-18T16:09:17.894Z,76.89
2017-08-18T16:11:42.696Z,79
2017-08-18T16:14:07.648Z,77.78
2017-08-18T16:16:39.760Z,78.81
2017-08-18T16:19:04.615Z,79.04
2017-08-18T16:21:29.211Z,78.61
2017-08-18T16:23:30.714Z,79
2017-08-18T16:25:55.253Z,78.42
2017-08-18T16:28:19.760Z,77.36
2017-08-18T16:30:44.257Z,79.68
2017-08-18T16:33:09.264Z,80.22
2017-08-18T16:35:33.727Z,79.2
2017-08-18T16:37:58.099Z,79.68
2017-08-18T16:40:14.098Z,79.16
2017-08-18T16:42:30.108Z,79.39
2017-08-18T16:44:40.121Z,79.72
2017-08-18T16:46:42.867Z,80.94
2017-08-18T16:48:58.805Z,84.28
2017-08-18T16:51:23.181Z,85.11
2017-08-18T16:53:33.715Z,85.06
2017-08-18T16:55:58.131Z,84.88
2017-08-18T16:58:22.441Z,83.91
2017-08-18T17:02:23.949Z,85.49
2017-08-18T17:04:48.424Z,85.4
2017-08-18T17:07:12.806Z,85.3
2017-08-18T17:09:37.299Z,85.98
2017-08-18T17:12:01.687Z,87.04
2017-08-18T17:14:26.070Z,85.78
2017-08-18T17:18:26.298Z,86.56
2017-08-18T17:20:50.645Z,86.11
2017-08-18T17:23:15.022Z,86.9
2017-08-18T17:25:39.299Z,87.48
2017-08-18T17:28:03.619Z,89.7
2017-08-18T17:30:27.892Z,88.83
2017-08-18T17:32:52.193Z,90.37
2017-08-18T17:35:16.434Z,89.65
2017-08-18T17:37:40.741Z,91.2
2017-08-18T17:40:04.996Z,91.44
2017-08-18T17:42:29.282Z,91.93
2017-08-18T17:44:53.587Z,92.26
2017-08-18T17:47:17.864Z,96.03
2017-08-18T17:49:42.659Z,95.16
2017-08-18T17:52:06.936Z,94.1
2017-08-18T17:54:31.227Z,93.23
2017-08-18T17:56:55.505Z,93.57
2017-08-18T17:59:19.684Z,95.11
2017-08-18T18:01:43.905Z,93.04
2017-08-18T18:04:08.169Z,93.66
2017-08-18T18:06:32.461Z,93.52
2017-08-18T18:08:56.780Z,94.29
2017-08-18T18:11:12.583Z,96.27
2017-08-18T18:13:36.764Z,95.11
2017-08-18T18:17:24.702Z,96.75
2017-08-18T18:19:49.172Z,98.1
2017-08-18T18:22:14.211Z,99.69
2017-08-18T18:24:38.633Z,98.68
2017-08-18T18:27:02.868Z,99.69
2017-08-18T18:29:13.237Z,99.99
2017-08-18T18:31:37.496Z,98.49
2017-08-18T18:34:01.693Z,98.34
2017-08-18T18:36:25.924Z,99.88
2017-08-18T18:38:50.140Z,99.99
2017-08-18T18:41:05.988Z,99.99
2017-08-18T18:43:30.229Z,99.99
2017-08-18T18:45:54.670Z,99.99
2017-08-18T18:48:18.841Z,99.99
2017-08-18T18:50:43.416Z,99.99
2017-08-18T18:53:08.238Z,99.99
2017-08-18T18:55:32.452Z,99.99
2017-08-18T18:57:56.717Z,99.99
2017-08-18T19:00:21.118Z,99.99
2017-08-18T19:02:45.221Z,99.99
2017-08-18T19:05:09.401Z,99.99
2017-08-18T19:07:33.623Z,99.99
2017-08-18T19:09:57.902Z,99.99
2017-08-18T19:12:22.140Z,99.99
2017-08-18T19:14:46.273Z,99.99
2017-08-18T19:17:02.078Z,99.99
2017-08-18T19:19:26.389Z,99.99
2017-08-18T19:21:50.561Z,99.99
2017-08-18T19:24:14.814Z,99.99
2017-08-18T19:26:39.033Z,99.99
2017-08-18T19:29:03.491Z,99.99
2017-08-18T19:31:27.694Z,99.99
2017-08-18T19:33:51.972Z,99.99
2017-08-18T19:36:16.256Z,99.99
2017-08-18T19:38:40.512Z,99.99
2017-08-18T19:41:04.696Z,99.99
2017-08-18T19:45:05.248Z,99.99
2017-08-18T19:47:29.390Z,99.99
2017-08-18T19:49:45.090Z,99.99
2017-08-18T19:52:09.248Z,99.99
2017-08-18T19:54:24.896Z,99.99
2017-08-18T19:56:48.995Z,99.99
2017-08-18T19:59:13.119Z,99.99
2017-08-18T20:01:37.150Z,99.99
2017-08-18T20:04:01.346Z,99.99
2017-08-18T20:06:25.360Z,99.99
2017-08-18T20:08:49.589Z,99.99
2017-08-18T20:11:13.686Z,99.99
2017-08-18T20:13:37.841Z,99.99
2017-08-18T20:16:01.952Z,99.99
2017-08-18T20:18:27.262Z,99.99
2017-08-18T20:20:52.289Z,99.99
2017-08-18T20:23:16.465Z,99.99
2017-08-18T20:25:40.620Z,99.99
2017-08-18T20:28:04.796Z,99.99
2017-08-18T20:30:28.880Z,99.99
2017-08-18T20:32:52.939Z,99.99
2017-08-18T20:35:17.072Z,99.99
2017-08-18T20:37:41.177Z,99.99
2017-08-18T20:39:56.827Z,99.99
2017-08-18T20:42:20.895Z,99.99
2017-08-18T20:44:45.022Z,99.99
2017-08-18T20:47:09.118Z,99.99
2017-08-18T20:49:33.172Z,99.99
2017-08-18T20:51:57.277Z,99.99
2017-08-18T20:54:21.342Z,99.99
2017-08-18T20:56:45.521Z,99.99
2017-08-18T20:59:09.627Z,99.99
2017-08-18T21:01:33.779Z,99.99
2017-08-18T21:05:34.223Z,99.99
2017-08-18T21:07:49.928Z,99.99
2017-08-18T21:10:14.052Z,99.99
2017-08-18T21:12:39.113Z,99.99
2017-08-18T21:14:41.012Z,99.99
2017-08-18T21:17:05.146Z,99.99
2017-08-18T21:19:29.268Z,99.99
2017-08-18T21:21:53.352Z,99.99
2017-08-18T21:24:17.464Z,99.99
2017-08-18T21:26:33.089Z,99.99
2017-08-18T21:28:48.755Z,99.99
2017-08-18T21:31:04.427Z,99.99
2017-08-18T21:33:20.082Z,99.99
2017-08-18T21:35:30.525Z,99.99
2017-08-18T21:37:54.643Z,99.99
2017-08-18T21:40:10.322Z,99.99
2017-08-18T21:42:34.398Z,99.99
2017-08-18T21:44:58.499Z,99.99
2017-08-18T21:47:22.572Z,99.99
2017-08-18T21:51:14.062Z,99.99
2017-08-18T21:53:38.149Z,99.99
2017-08-18T21:56:02.307Z,99.99
2017-08-18T21:58:26.429Z,99.99
2017-08-18T22:00:50.517Z,99.99
2017-08-18T22:03:14.628Z,99.99
2017-08-18T22:05:25.068Z,99.99
2017-08-18T22:07:49.200Z,99.99
2017-08-18T22:10:13.319Z,99.99
2017-08-18T22:12:37.452Z,99.99
2017-08-18T22:15:01.609Z,99.99
2017-08-18T22:17:25.689Z,99.99
2017-08-18T22:19:49.790Z,99.99
2017-08-18T22:22:13.857Z,99.99
2017-08-18T22:24:37.976Z,99.99
2017-08-18T22:27:02.070Z,99.99
2017-08-18T22:29:26.184Z,99.99
2017-08-18T22:31:50.365Z,99.99
2017-08-18T22:34:14.564Z,99.99
2017-08-18T22:36:38.701Z,99.99
2017-08-18T22:39:02.731Z,99.99
2017-08-18T22:42:48.970Z,99.99
2017-08-18T22:45:13.110Z,99.99
2017-08-18T22:47:14.529Z,99.99
2017-08-18T22:49:38.641Z,99.99
2017-08-18T22:52:02.802Z,99.99
2017-08-18T22:54:05.061Z,99.99
2017-08-18T22:56:29.178Z,99.99
2017-08-18T22:58:44.828Z,99.99
2017-08-18T23:01:08.922Z,99.99
2017-08-18T23:03:33.029Z,99.99
2017-08-18T23:07:33.298Z,99.99
2017-08-18T23:09:57.420Z,99.99
2017-08-18T23:12:21.551Z,99.99
2017-08-18T23:16:21.268Z,99.99
2017-08-18T23:18:45.442Z,99.99
2017-08-18T23:21:09.442Z,99.99
2017-08-18T23:23:33.452Z,99.99
2017-08-18T23:27:33.710Z,99.99
2017-08-18T23:29:57.777Z,99.99
2017-08-18T23:32:21.962Z,99.99
2017-08-18T23:36:22.630Z,99.99
2017-08-18T23:38:24.509Z,99.99
2017-08-18T23:40:49.296Z,99.99
2017-08-18T23:43:19.931Z,99.99
2017-08-18T23:45:43.946Z,99.99
2017-08-18T23:49:44.171Z,99.99
2017-08-18T23:52:08.259Z,99.99
2017-08-18T23:54:32.284Z,99.99
2017-08-18T23:56:56.310Z,99.99
2017-08-18T23:59:34.976Z,99.99
